Terminal Aerodrome Forecast
Issued by NWS Wilmington, OH

Current Version | Previous Version | Graphics & Text | Print | Product List | Glossary On
Versions: 1 2 3 4 5 6 7 8 9 10 11 12 13 14 15 16 17 18 19 20 21 22 23
000
FTUS41 KILN 150500
TAFCVG
TAF
KCVG 150523Z 1506/1612 33014G22KT 4SM -SN BR OVC010
     FM150700 34014G22KT 1SM -SN OVC006
     FM150900 34014G22KT 4SM -SN OVC006
     FM151100 33012G20KT P6SM OVC012
     FM151500 33014G22KT P6SM BKN025
     FM151800 32012G20KT P6SM BKN040
     FM152300 32010KT P6SM SCT040
     FM160100 VRB03KT P6SM SKC=

USA.gov is the U.S. government's official web portal to all federal, state and local government web resources and services.